Time;durP1;ratioP1;P1;durP2;ratioP2;P2;SDS_P1;SDS_P2;PMS_P1;PMS_P2;Temp;Humidity;BMP_temperature;BMP_pressure;BME280_temperature;BME280_humidity;BME280_pressure;Samples;Min_cycle;Max_cycle;Signal;HPM_P1;HPM_P2
2021/12/12 00:01:01;;;;;;;68.33;27.85;;;;;;;0.28;75.54;99088.20;1687221;84;25454;-61
2021/12/12 00:03:46;;;;;;;66.77;28.27;;;;;;;0.28;75.45;99097.12;1685971;85;27772;-61
2021/12/12 00:06:29;;;;;;;67.40;26.80;;;;;;;0.29;75.60;99096.06;1686859;83;25458;-61
2021/12/12 00:09:07;;;;;;;76.92;28.62;;;;;;;0.31;75.56;99100.70;1686892;85;25766;-62
2021/12/12 00:11:35;;;;;;;69.75;28.30;;;;;;;0.33;75.44;99104.51;1685860;85;25792;-61
2021/12/12 00:14:10;;;;;;;77.45;29.00;;;;;;;0.34;75.65;99112.36;1687176;85;25669;-62
2021/12/12 00:16:37;;;;;;;70.97;28.10;;;;;;;0.35;75.49;99107.80;1684566;85;27538;-62
2021/12/12 00:19:05;;;;;;;68.67;28.67;;;;;;;0.29;75.49;99110.89;1687117;85;25660;-62
2021/12/12 00:21:34;;;;;;;70.45;29.52;;;;;;;0.22;75.83;99106.98;1686857;85;25676;-62
2021/12/12 00:24:04;;;;;;;71.33;27.77;;;;;;;0.23;75.74;99108.61;1686905;85;27917;-61
2021/12/12 00:26:31;;;;;;;69.47;27.57;;;;;;;0.21;75.88;99107.20;1687595;85;25403;-61
2021/12/12 00:28:57;;;;;;;67.47;27.45;;;;;;;0.27;76.07;99114.88;1686781;85;27427;-61
2021/12/12 00:31:26;;;;;;;64.95;27.25;;;;;;;0.27;76.01;99118.92;1686714;85;27202;-61
2021/12/12 00:33:55;;;;;;;56.10;24.90;;;;;;;0.26;75.76;99109.20;1687235;85;25427;-61
2021/12/12 00:36:24;;;;;;;59.88;24.55;;;;;;;0.26;75.96;99111.38;1687060;85;25792;-62
2021/12/12 00:38:58;;;;;;;54.95;23.90;;;;;;;0.25;75.79;99113.77;1687376;85;25668;-61
2021/12/12 00:41:42;;;;;;;56.55;24.23;;;;;;;0.26;76.16;99117.30;1687245;85;27412;-61
2021/12/12 00:44:09;;;;;;;53.87;26.50;;;;;;;0.30;75.95;99118.45;1686882;85;25859;-61
2021/12/12 00:46:37;;;;;;;56.33;24.15;;;;;;;0.23;75.77;99120.73;1686979;85;25568;-61
2021/12/12 00:49:04;;;;;;;54.63;23.52;;;;;;;0.26;76.14;99125.37;1686821;85;25749;-62
2021/12/12 00:51:36;;;;;;;55.85;23.20;;;;;;;0.27;75.98;99130.53;1687199;85;25611;-61
2021/12/12 00:54:03;;;;;;;;;;;;;;;0.24;75.83;99135.88;1689388;85;29497;-61
2021/12/12 00:56:31;;;;;;;57.27;24.47;;;;;;;0.23;76.28;99139.61;1686914;85;25637;-61
2021/12/12 00:58:58;;;;;;;60.70;26.45;;;;;;;0.27;76.23;99144.53;1686797;85;25587;-61
2021/12/12 01:01:30;;;;;;;59.60;23.47;;;;;;;0.26;76.28;99141.55;1686814;85;27797;-61
2021/12/12 01:04:07;;;;;;;52.30;25.00;;;;;;;0.19;75.91;99138.44;1686771;84;25458;-61
2021/12/12 01:06:34;;;;;;;53.90;25.20;;;;;;;0.13;75.99;99139.37;1679205;84;28213;-61
2021/12/12 01:09:05;;;;;;;67.78;26.10;;;;;;;0.18;76.42;99150.28;1676848;85;27252;-61
2021/12/12 01:11:37;;;;;;;66.25;27.62;;;;;;;0.22;76.35;99147.41;1677032;84;25657;-61
2021/12/12 01:14:08;;;;;;;68.15;27.70;;;;;;;0.26;76.33;99152.34;1676970;84;25772;-61
2021/12/12 01:16:48;;;;;;;64.97;27.05;;;;;;;0.19;76.32;99149.73;1677316;84;25679;-63
2021/12/12 01:19:26;;;;;;;65.03;27.50;;;;;;;0.20;76.26;99157.59;1676633;84;27459;-61
2021/12/12 01:21:57;;;;;;;91.05;36.48;;;;;;;0.20;76.46;99151.41;1676043;85;25508;-62
2021/12/12 01:24:32;;;;;;;70.47;29.35;;;;;;;0.20;76.46;99152.20;1676900;85;25636;-61
2021/12/12 01:27:01;;;;;;;92.95;36.48;;;;;;;0.19;76.42;99150.57;1676994;84;25768;-62
2021/12/12 01:29:28;;;;;;;134.05;46.15;;;;;;;0.21;76.33;99146.30;1677291;85;25415;-61
2021/12/12 01:31:59;;;;;;;76.65;30.25;;;;;;;0.22;76.38;99148.76;1677329;84;27362;-62
2021/12/12 01:34:29;;;;;;;76.57;32.90;;;;;;;0.30;76.49;99144.06;1676946;84;25685;-62
2021/12/12 01:37:23;;;;;;;65.12;27.42;;;;;;;0.35;76.30;99144.20;1677341;84;25616;-61
2021/12/12 01:39:45;;;;;;;57.10;26.65;;;;;;;0.34;76.18;99138.49;1674839;85;25584;-61
2021/12/12 01:42:24;;;;;;;69.10;30.00;;;;;;;0.37;76.11;99136.67;1677022;85;25692;-61
2021/12/12 01:44:55;;;;;;;58.02;24.12;;;;;;;0.37;76.11;99132.12;1677233;84;27674;-64
2021/12/12 01:47:35;;;;;;;69.87;28.80;;;;;;;0.36;76.12;99138.58;1676261;84;25406;-61
2021/12/12 01:50:07;;;;;;;57.62;24.65;;;;;;;0.34;76.01;99143.37;1676038;85;25666;-61
2021/12/12 01:52:34;;;;;;;72.58;30.43;;;;;;;0.33;76.42;99145.78;1676659;85;26373;-61
2021/12/12 01:55:11;;;;;;;70.72;28.98;;;;;;;0.33;76.28;99150.34;1656126;85;25501;-61
2021/12/12 01:57:39;;;;;;;61.20;27.87;;;;;;;0.34;76.25;99150.11;1676945;85;25917;-61
2021/12/12 02:00:14;;;;;;;71.25;29.52;;;;;;;0.40;76.28;99149.69;1677052;84;25612;-62
2021/12/12 02:02:42;;;;;;;63.75;29.48;;;;;;;0.39;76.08;99149.41;1677054;85;25495;-61
2021/12/12 02:05:14;;;;;;;59.20;25.88;;;;;;;0.36;75.95;99150.70;1677045;84;25796;-60
2021/12/12 02:07:45;;;;;;;59.67;26.17;;;;;;;0.38;75.75;99162.61;1677027;85;25429;-61
2021/12/12 02:10:22;;;;;;;62.53;25.68;;;;;;;0.35;76.30;99163.07;1677523;84;28315;-62
2021/12/12 02:12:49;;;;;;;57.35;25.72;;;;;;;0.32;75.90;99169.73;1677058;84;25643;-60
2021/12/12 02:15:17;;;;;;;53.08;25.30;;;;;;;0.25;76.25;99173.08;1677127;85;25699;-63
2021/12/12 02:17:48;;;;;;;57.27;25.85;;;;;;;0.29;76.57;99170.20;1677353;84;25799;-61
2021/12/12 02:20:31;;;;;;;63.80;28.00;;;;;;;0.29;76.49;99171.55;1677619;84;25753;-61
2021/12/12 02:23:08;;;;;;;68.35;30.80;;;;;;;0.28;76.28;99173.95;1674640;85;25971;-61
2021/12/12 02:36:36;;;;;;;91.37;37.15;;;;;;;0.24;76.25;99188.96;1677174;85;25659;-63
2021/12/12 02:39:15;;;;;;;88.90;37.25;;;;;;;0.29;76.51;99185.57;1677012;85;25582;-62
2021/12/12 02:41:38;;;;;;;84.58;36.58;;;;;;;0.28;76.19;99190.64;1676583;85;25607;-62
2021/12/12 02:44:05;;;;;;;85.17;36.70;;;;;;;0.31;76.62;99186.97;1677088;84;25791;-61
2021/12/12 02:46:36;;;;;;;85.05;38.35;;;;;;;0.26;76.28;99192.26;1677333;84;25665;-62
2021/12/12 02:49:11;;;;;;;84.40;39.53;;;;;;;0.27;76.59;99198.45;1677403;84;27546;-61
2021/12/12 02:51:42;;;;;;;98.40;40.88;;;;;;;0.33;76.71;99204.27;1676664;85;25483;-63
2021/12/12 02:54:10;;;;;;;93.07;38.65;;;;;;;0.31;76.65;99201.80;1677560;84;25625;-62
2021/12/12 02:56:45;;;;;;;93.37;39.73;;;;;;;0.35;76.63;99203.52;1677372;84;25901;-62
2021/12/12 02:59:17;;;;;;;91.25;38.80;;;;;;;0.34;76.38;99204.55;1677098;84;25682;-66
2021/12/12 03:01:57;;;;;;;96.63;40.45;;;;;;;0.36;76.40;99207.33;1677432;85;26826;-63
2021/12/12 03:04:26;;;;;;;111.83;45.67;;;;;;;0.35;76.59;99207.02;1676973;84;25785;-62
2021/12/12 03:06:53;;;;;;;94.13;39.25;;;;;;;0.39;76.57;99206.55;1683537;84;25679;-62
2021/12/12 03:09:28;;;;;;;94.67;39.40;;;;;;;0.40;76.53;99207.66;1687259;85;25810;-62
2021/12/12 03:11:59;;;;;;;99.05;39.35;;;;;;;0.39;76.53;99205.20;1686247;85;25600;-62
2021/12/12 03:14:32;;;;;;;90.22;39.18;;;;;;;0.37;76.30;99208.13;1686825;85;27405;-64
2021/12/12 03:17:00;;;;;;;92.25;37.75;;;;;;;0.34;76.47;99215.33;1686667;85;25477;-62
2021/12/12 03:19:27;;;;;;;95.97;38.67;;;;;;;0.32;76.62;99208.83;1686916;85;25495;-63
2021/12/12 03:21:54;;;;;;;93.72;37.88;;;;;;;0.22;76.47;99208.06;1686892;85;25795;-64
2021/12/12 03:24:25;;;;;;;94.87;41.80;;;;;;;0.22;76.91;99201.84;1687300;85;25597;-62
2021/12/12 03:26:57;;;;;;;94.52;39.98;;;;;;;0.20;76.61;99202.07;1686999;85;27491;-62
2021/12/12 03:29:25;;;;;;;79.17;35.80;;;;;;;0.22;76.75;99202.67;1686544;85;25420;-62
2021/12/12 03:31:57;;;;;;;80.95;35.73;;;;;;;0.24;76.57;99199.75;1686807;85;25643;-62
2021/12/12 03:34:28;;;;;;;74.97;33.98;;;;;;;0.26;76.79;99200.86;1687089;85;26457;-62
2021/12/12 03:36:55;;;;;;;;;;;;;;;0.24;76.76;99199.75;1689640;85;25386;-62
2021/12/12 03:39:30;;;;;;;88.65;39.20;;;;;;;0.18;76.90;99196.62;1687268;85;27970;-62
2021/12/12 03:42:00;;;;;;;86.60;39.78;;;;;;;0.23;77.12;99202.95;1686773;85;26013;-61
2021/12/12 03:44:31;;;;;;;75.92;34.30;;;;;;;0.23;76.84;99206.20;1687239;85;25445;-61
2021/12/12 03:47:00;;;;;;;;;;;;;;;0.25;76.87;99195.98;1689370;85;25755;-61
2021/12/12 03:49:27;;;;;;;65.87;29.95;;;;;;;0.24;76.69;99195.19;1686956;84;25442;-61
2021/12/12 03:51:54;;;;;;;69.82;32.13;;;;;;;0.22;76.56;99193.23;1686968;85;27525;-61
2021/12/12 03:54:20;;;;;;;71.07;33.00;;;;;;;0.25;76.62;99194.64;1686811;85;25473;-61
2021/12/12 03:56:47;;;;;;;74.42;31.77;;;;;;;0.26;76.48;99200.34;1686876;85;25447;-61
2021/12/12 03:59:15;;;;;;;63.15;29.23;;;;;;;0.26;76.74;99202.20;1686792;85;25752;-62
2021/12/12 04:01:46;;;;;;;62.95;28.92;;;;;;;0.28;76.81;99206.82;1687223;85;25450;-62
2021/12/12 04:04:18;;;;;;;69.75;30.80;;;;;;;0.30;76.75;99204.73;1687523;85;28318;-62
2021/12/12 04:06:46;;;;;;;70.05;31.77;;;;;;;0.29;76.77;99205.79;1694911;84;25459;-62
2021/12/12 04:09:14;;;;;;;70.57;31.50;;;;;;;0.23;76.66;99208.89;1704340;84;25692;-61
2021/12/12 04:11:45;;;;;;;69.65;32.13;;;;;;;0.23;76.89;99208.34;1704752;84;25712;-62
2021/12/12 04:14:13;;;;;;;70.40;31.87;;;;;;;0.24;77.18;99206.48;1703245;84;25407;-61
2021/12/12 04:16:44;;;;;;;77.08;33.00;;;;;;;0.22;76.78;99212.11;1704365;84;27455;-61
2021/12/12 04:19:11;;;;;;;72.32;31.05;;;;;;;0.18;76.94;99216.84;1704107;84;25469;-62
2021/12/12 04:21:40;;;;;;;66.28;31.10;;;;;;;0.21;77.10;99226.65;1704764;84;25431;-65
2021/12/12 04:24:09;;;;;;;70.15;31.48;;;;;;;0.24;77.02;99233.44;1704693;84;25822;-62
2021/12/12 04:26:42;;;;;;;74.32;33.85;;;;;;;0.25;76.88;99243.16;1704728;84;25582;-61
2021/12/12 04:29:22;;;;;;;67.87;33.45;;;;;;;0.21;76.94;99240.13;1704397;84;27694;-62
2021/12/12 04:31:56;;;;;;;70.65;32.48;;;;;;;0.25;77.03;99245.86;1704669;84;25485;-62
2021/12/12 04:34:26;;;;;;;65.60;30.62;;;;;;;0.31;77.14;99245.45;1704654;84;25611;-62
2021/12/12 04:36:56;;;;;;;78.45;34.13;;;;;;;0.34;76.86;99247.17;1704743;82;25623;-61
2021/12/12 04:39:27;;;;;;;76.22;31.87;;;;;;;0.34;76.91;99244.48;1704691;82;25595;-62
2021/12/12 04:41:59;;;;;;;76.62;33.48;;;;;;;0.27;76.75;99253.20;1704522;84;27770;-64
2021/12/12 04:44:30;;;;;;;76.87;34.27;;;;;;;0.26;77.15;99262.34;1704649;84;25693;-61
2021/12/12 04:49:57;;;;;;;82.15;35.28;;;;;;;0.16;77.05;99268.28;1704404;84;25504;-61
2021/12/12 04:52:31;;;;;;;87.50;37.05;;;;;;;0.12;77.19;99271.16;1704785;84;25458;-61
2021/12/12 04:55:09;;;;;;;80.50;35.30;;;;;;;0.08;77.26;99278.86;1703891;84;27474;-61
2021/12/12 04:57:43;;;;;;;91.75;37.70;;;;;;;0.07;77.59;99281.78;1704327;84;25608;-61
2021/12/12 05:00:21;;;;;;;89.07;38.08;;;;;;;0.10;77.64;99287.55;1704379;82;25683;-61
2021/12/12 05:03:12;;;;;;;83.35;37.67;;;;;;;0.13;77.41;99295.70;1704476;84;25575;-63
2021/12/12 05:05:58;;;;;;;85.97;35.85;;;;;;;0.07;77.33;99306.87;1704122;82;25602;-61
2021/12/12 05:08:38;;;;;;;86.15;36.42;;;;;;;0.02;77.49;99301.84;1687204;84;29573;-61
2021/12/12 05:11:13;;;;;;;74.10;33.85;;;;;;;0.01;77.69;99301.56;1687228;85;25474;-61
2021/12/12 05:13:44;;;;;;;78.57;34.40;;;;;;;0.05;77.54;99305.44;1687222;83;25742;-61
2021/12/12 05:16:18;;;;;;;64.50;30.30;;;;;;;0.08;77.55;99311.20;1687773;85;25726;-61
2021/12/12 05:18:51;;;;;;;72.55;29.70;;;;;;;0.02;77.19;99309.42;1687607;85;25400;-61
2021/12/12 05:21:25;;;;;;;75.87;30.05;;;;;;;-0.05;77.38;99308.17;1687579;85;28247;-60
2021/12/12 05:23:59;;;;;;;80.40;32.58;;;;;;;-0.09;77.43;99308.86;1687428;85;25780;-62
2021/12/12 05:26:36;;;;;;;80.70;30.70;;;;;;;-0.10;77.62;99305.33;1687303;85;25419;-62
2021/12/12 05:29:17;;;;;;;82.33;31.35;;;;;;;-0.12;77.47;99307.42;1687181;85;27855;-63
2021/12/12 05:31:50;;;;;;;84.85;32.70;;;;;;;-0.10;77.44;99314.76;1687376;84;25663;-64
2021/12/12 05:34:20;;;;;;;105.05;38.88;;;;;;;-0.17;77.32;99314.83;1687869;85;27483;-61
2021/12/12 05:36:48;;;;;;;132.25;42.10;;;;;;;-0.19;77.20;99318.30;1687624;85;25616;-66
2021/12/12 05:39:16;;;;;;;110.00;40.30;;;;;;;-0.24;77.19;99316.79;1687446;85;25730;-65
2021/12/12 05:41:43;;;;;;;125.10;41.98;;;;;;;-0.28;77.17;99313.74;1687395;85;25722;-61
2021/12/12 05:44:10;;;;;;;105.95;37.65;;;;;;;-0.34;77.02;99312.47;1687486;85;25655;-61
2021/12/12 05:46:37;;;;;;;81.90;31.35;;;;;;;-0.46;77.10;99319.93;1687980;85;28451;-61
2021/12/12 05:49:06;;;;;;;74.15;30.82;;;;;;;-0.51;77.13;99320.61;1687897;85;25810;-64
2021/12/12 05:51:33;;;;;;;80.10;27.75;;;;;;;-0.59;77.30;99319.56;1687368;85;25791;-60
2021/12/12 05:54:01;;;;;;;81.78;33.67;;;;;;;-0.59;77.43;99320.91;1687633;85;25750;-62
2021/12/12 05:56:31;;;;;;;91.60;34.23;;;;;;;-0.62;77.40;99317.84;1687420;84;25720;-61
2021/12/12 05:59:00;;;;;;;78.10;31.62;;;;;;;-0.68;77.32;99324.43;1687950;85;27397;-62
2021/12/12 06:01:29;;;;;;;76.57;30.40;;;;;;;-0.72;77.43;99325.09;1687604;85;26046;-60
2021/12/12 06:03:56;;;;;;;95.22;36.00;;;;;;;-0.75;77.68;99326.34;1687353;83;25596;-63
2021/12/12 06:06:30;;;;;;;126.65;41.42;;;;;;;-0.80;77.47;99333.73;1687615;84;25753;-62
2021/12/12 06:09:00;;;;;;;127.02;42.65;;;;;;;-0.87;77.42;99327.59;1686120;85;25465;-61
2021/12/12 06:11:30;;;;;;;115.92;38.55;;;;;;;-0.93;77.51;99330.66;1687349;85;27857;-61
2021/12/12 06:13:57;;;;;;;150.68;44.70;;;;;;;-0.97;77.62;99324.59;1687093;85;25981;-60
2021/12/12 06:16:25;;;;;;;157.00;45.58;;;;;;;-1.04;77.58;99323.30;1687318;85;25738;-60
2021/12/12 06:19:13;;;;;;;143.15;47.33;;;;;;;-1.09;77.75;99329.37;1686826;85;25774;-60
2021/12/12 06:21:41;;;;;;;114.40;40.98;;;;;;;-1.15;77.66;99331.05;1687429;85;25421;-64
2021/12/12 06:24:09;;;;;;;129.00;43.28;;;;;;;-1.29;77.55;99329.52;1687307;85;28112;-60
2021/12/12 06:26:38;;;;;;;95.35;34.10;;;;;;;-1.37;77.63;99329.27;1687192;85;25680;-63
2021/12/12 06:29:06;;;;;;;96.05;35.90;;;;;;;-1.47;77.64;99328.94;1687213;85;25691;-61
2021/12/12 06:31:37;;;;;;;83.17;33.23;;;;;;;-1.58;77.81;99325.07;1687188;85;26183;-62
2021/12/12 06:34:05;;;;;;;72.03;30.97;;;;;;;-1.64;77.98;99335.64;1687456;85;25511;-59
2021/12/12 06:36:33;;;;;;;79.00;33.28;;;;;;;-1.70;78.12;99333.01;1689424;84;27505;-59
2021/12/12 06:39:00;;;;;;;81.97;34.88;;;;;;;-1.72;78.40;99330.53;1692486;84;25646;-59
2021/12/12 06:41:28;;;;;;;167.90;51.23;;;;;;;-1.71;78.49;99327.31;1687088;85;25502;-63
2021/12/12 06:43:56;;;;;;;71.33;30.80;;;;;;;-1.77;78.21;99339.24;1686888;85;25818;-64
2021/12/12 06:46:24;;;;;;;86.05;34.38;;;;;;;-1.82;78.18;99340.39;1686887;85;25485;-62
2021/12/12 06:48:52;;;;;;;81.97;33.88;;;;;;;-1.91;78.31;99334.45;1687066;85;28412;-62
2021/12/12 06:51:19;;;;;;;73.05;32.17;;;;;;;-1.95;78.44;99333.24;1686833;85;27103;-62
2021/12/12 06:53:48;;;;;;;80.95;31.50;;;;;;;-1.97;78.42;99342.02;1686902;85;25743;-61
2021/12/12 06:56:21;;;;;;;65.92;30.32;;;;;;;-2.02;78.40;99333.27;1687135;85;25678;-62
2021/12/12 06:58:50;;;;;;;72.80;31.57;;;;;;;-2.04;78.46;99333.98;1686949;85;25429;-67
2021/12/12 07:01:22;;;;;;;70.17;28.83;;;;;;;-2.05;78.51;99338.23;1686215;85;28237;-63
2021/12/12 07:03:51;;;;;;;70.40;31.15;;;;;;;-2.07;78.40;99340.33;1686915;85;25403;-62
2021/12/12 07:06:21;;;;;;;65.37;29.60;;;;;;;-2.06;78.57;99346.83;1686988;85;25651;-61
2021/12/12 07:08:49;;;;;;;83.95;36.05;;;;;;;-2.05;78.70;99351.15;1678105;84;25836;-62
2021/12/12 07:11:20;;;;;;;93.05;36.68;;;;;;;-1.99;78.91;99356.72;1677511;85;25664;-61
2021/12/12 07:13:48;;;;;;;92.22;38.20;;;;;;;-1.99;78.61;99355.38;1676691;85;29778;-60
2021/12/12 07:16:16;;;;;;;85.42;36.95;;;;;;;-1.98;78.78;99352.47;1676869;84;27185;-64
2021/12/12 07:18:43;;;;;;;80.75;35.00;;;;;;;-1.94;78.80;99352.85;1677090;84;25686;-63
2021/12/12 07:21:14;;;;;;;83.82;34.30;;;;;;;-1.93;78.70;99354.52;1677310;84;25571;-60
2021/12/12 07:23:43;;;;;;;78.02;34.27;;;;;;;-1.93;78.61;99353.98;1677519;85;25589;-59
2021/12/12 07:26:13;;;;;;;79.62;33.90;;;;;;;-1.92;78.57;99358.84;1677268;85;28183;-59
2021/12/12 07:28:41;;;;;;;79.15;33.42;;;;;;;-1.91;78.59;99355.95;1677170;84;25599;-60
2021/12/12 07:31:13;;;;;;;73.05;31.17;;;;;;;-1.93;78.30;99356.67;1677507;84;25739;-60
2021/12/12 07:33:41;;;;;;;70.60;32.17;;;;;;;-1.90;78.68;99354.90;1677025;85;25736;-60
2021/12/12 07:36:10;;;;;;;71.02;30.23;;;;;;;-1.83;78.40;99362.94;1655985;85;25501;-60
2021/12/12 07:38:44;;;;;;;87.75;35.15;;;;;;;-1.78;78.53;99361.76;1677416;85;27389;-62
2021/12/12 07:41:10;;;;;;;72.05;32.15;;;;;;;-1.73;78.55;99367.83;1677538;84;25432;-60
2021/12/12 07:43:37;;;;;;;77.87;30.92;;;;;;;-1.64;78.65;99373.80;1677370;84;25612;-60
2021/12/12 07:46:06;;;;;;;67.17;30.88;;;;;;;-1.55;78.67;99375.71;1677059;85;25804;-60
2021/12/12 07:48:35;;;;;;;62.38;29.65;;;;;;;-1.53;78.03;99381.17;1677085;84;25660;-61
2021/12/12 07:51:03;;;;;;;63.55;28.73;;;;;;;-1.48;78.54;99372.45;1677051;84;27435;-60
2021/12/12 07:53:30;;;;;;;70.05;30.80;;;;;;;-1.41;78.22;99377.80;1677376;85;25624;-60
2021/12/12 07:55:57;;;;;;;66.95;29.18;;;;;;;-1.43;78.11;99383.91;1677243;85;25664;-59
2021/12/12 07:58:26;;;;;;;66.05;29.82;;;;;;;-1.34;78.24;99381.27;1677276;85;26703;-59
2021/12/12 08:00:57;;;;;;;58.70;26.80;;;;;;;-1.32;78.20;99387.23;1677420;84;25486;-60
2021/12/12 08:03:28;;;;;;;64.55;30.60;;;;;;;-1.35;77.84;99385.52;1677211;84;29605;-63
2021/12/12 08:05:56;;;;;;;66.90;29.30;;;;;;;-1.34;78.57;99392.53;1677380;84;25742;-62
2021/12/12 08:08:25;;;;;;;73.15;29.48;;;;;;;-1.17;78.76;99392.33;1682821;84;25478;-62
2021/12/12 08:10:52;;;;;;;62.40;29.00;;;;;;;-1.08;78.32;99392.88;1687148;85;25745;-65
2021/12/12 08:13:20;;;;;;;61.85;29.18;;;;;;;-1.02;78.08;99392.01;1687114;85;25642;-67
2021/12/12 08:15:47;;;;;;;80.28;32.95;;;;;;;-0.87;78.31;99388.15;1687278;85;28138;-63
2021/12/12 08:18:17;;;;;;;83.00;32.10;;;;;;;-0.72;77.84;99389.70;1687052;85;25453;-62
2021/12/12 08:20:47;;;;;;;80.17;34.63;;;;;;;-0.47;78.03;99388.82;1687148;85;25724;-62
2021/12/12 08:23:15;;;;;;;77.13;33.90;;;;;;;-0.29;77.41;99384.00;1686885;85;27798;-61
2021/12/12 08:25:45;;;;;;;87.88;41.55;;;;;;;0.01;77.52;99388.63;1687118;85;25659;-62
2021/12/12 08:28:12;;;;;;;84.25;37.40;;;;;;;0.26;76.98;99392.27;1687214;85;28204;-62
2021/12/12 08:30:39;;;;;;;93.87;40.58;;;;;;;0.60;76.98;99382.67;1687244;85;25797;-62
2021/12/12 08:33:08;;;;;;;84.30;37.55;;;;;;;0.93;76.39;99381.88;1675727;85;25599;-62
2021/12/12 08:35:38;;;;;;;83.92;37.03;;;;;;;1.17;75.53;99376.50;1687203;85;26080;-62
2021/12/12 08:38:07;;;;;;;72.67;33.38;;;;;;;1.28;74.78;99379.44;1686819;85;25664;-63
2021/12/12 08:40:39;;;;;;;78.15;33.80;;;;;;;1.54;74.47;99380.85;1687125;85;27438;-62
2021/12/12 08:43:12;;;;;;;85.47;32.98;;;;;;;1.82;73.87;99380.66;1685697;85;27201;-62
2021/12/12 08:45:44;;;;;;;103.42;37.88;;;;;;;2.20;74.51;99380.31;1686675;84;25603;-63
2021/12/12 08:48:13;;;;;;;92.50;35.80;;;;;;;2.56;73.66;99387.75;1687195;85;25774;-62
2021/12/12 08:50:43;;;;;;;120.17;41.73;;;;;;;2.85;72.70;99387.72;1687346;85;25682;-63
2021/12/12 08:53:09;;;;;;;74.32;30.85;;;;;;;3.01;71.32;99388.81;1692677;84;27280;-62
2021/12/12 08:55:43;;;;;;;45.20;20.85;;;;;;;3.21;70.38;99386.15;1693045;84;25712;-62
2021/12/12 08:58:17;;;;;;;58.17;23.85;;;;;;;3.18;70.26;99389.35;1682146;85;25703;-63
2021/12/12 09:01:10;;;;;;;56.25;24.50;;;;;;;3.25;69.59;99387.28;1671604;85;26353;-62
2021/12/12 09:03:56;;;;;;;60.17;27.20;;;;;;;3.18;70.13;99387.16;1687045;85;25684;-62
2021/12/12 09:06:31;;;;;;;94.37;36.83;;;;;;;3.18;70.57;99387.16;1686770;85;27480;-62
2021/12/12 09:09:15;;;;;;;64.82;27.90;;;;;;;3.22;71.31;99379.66;1680054;84;25689;-62
2021/12/12 09:12:04;;;;;;;48.33;24.10;;;;;;;3.24;69.56;99376.70;1677390;84;25501;-62
2021/12/12 09:14:39;;;;;;;47.60;23.30;;;;;;;3.24;70.76;99375.34;1677511;84;25721;-63
2021/12/12 09:17:14;;;;;;;50.12;24.27;;;;;;;3.30;70.02;99381.13;1676692;85;25724;-62
2021/12/12 09:20:13;;;;;;;70.87;29.75;;;;;;;3.30;70.09;99393.32;1677139;85;28151;-62
2021/12/12 09:22:47;;;;;;;49.30;25.02;;;;;;;3.25;68.60;99387.28;1676788;85;25503;-61
2021/12/12 09:25:36;;;;;;;52.73;25.17;;;;;;;3.16;69.21;99380.64;1676732;85;25613;-61
2021/12/12 09:28:09;;;;;;;43.25;22.62;;;;;;;3.07;70.08;99385.65;1676677;85;25587;-62
2021/12/12 09:30:37;;;;;;;45.70;22.55;;;;;;;3.04;69.36;99388.84;1677399;84;25682;-65
2021/12/12 09:33:24;;;;;;;45.48;23.92;;;;;;;3.08;70.19;99378.36;1677210;85;26884;-64
2021/12/12 09:36:11;;;;;;;43.87;22.87;;;;;;;3.27;70.07;99382.98;1648460;85;27263;-63
2021/12/12 09:38:59;;;;;;;53.17;27.37;;;;;;;3.43;68.48;99377.27;1677036;84;25502;-63
2021/12/12 09:41:46;;;;;;;49.13;26.62;;;;;;;3.44;69.07;99385.67;1677184;85;25707;-62
2021/12/12 09:44:56;;;;;;;54.77;27.73;;;;;;;3.44;68.86;99382.97;1633687;87;25841;-62
2021/12/12 09:47:59;;;;;;;61.68;29.92;;;;;;;3.35;67.92;99383.09;1677152;85;27368;-64
2021/12/12 09:53:54;;;;;;;54.50;31.20;;;;;;;3.46;68.30;99384.08;1677075;85;25656;-64
2021/12/12 09:57:03;;;;;;;60.50;33.83;;;;;;;3.58;67.23;99383.97;1677035;84;25741;-63
2021/12/12 09:59:54;;;;;;;62.75;35.80;;;;;;;3.60;67.05;99379.94;1678683;85;25866;-63
2021/12/12 10:02:42;;;;;;;60.48;33.92;;;;;;;3.83;65.54;99375.36;1686572;84;27424;-63
2021/12/12 10:05:51;;;;;;;66.47;35.38;;;;;;;3.95;67.78;99373.08;1676543;85;25673;-62
2021/12/12 10:08:41;;;;;;;55.38;32.10;;;;;;;4.21;67.70;99378.28;1677112;84;25467;-64
2021/12/12 10:11:46;;;;;;;62.48;35.88;;;;;;;4.39;67.42;99378.48;1677550;84;26452;-64
2021/12/12 10:15:00;;;;;;;48.78;29.52;;;;;;;4.42;66.11;99381.22;1677085;85;25652;-63
2021/12/12 10:17:41;;;;;;;55.48;31.25;;;;;;;4.48;65.42;99378.01;1677070;85;27677;-63
2021/12/12 10:20:19;;;;;;;43.33;23.98;;;;;;;4.68;65.15;99375.22;1677269;84;25459;-63
2021/12/12 10:23:18;;;;;;;57.70;30.72;;;;;;;4.91;63.49;99376.80;1677127;85;25633;-62
2021/12/12 10:25:50;;;;;;;53.10;30.60;;;;;;;5.07;64.19;99381.01;1677335;84;25762;-64
2021/12/12 10:28:37;;;;;;;58.65;33.38;;;;;;;4.89;64.06;99378.41;1677493;85;25671;-63
2021/12/12 10:31:30;;;;;;;58.78;35.40;;;;;;;5.06;64.55;99381.54;1677136;85;27557;-62
2021/12/12 10:34:08;;;;;;;49.83;29.42;;;;;;;5.30;63.19;99380.36;1677185;83;25637;-61
2021/12/12 10:36:52;;;;;;;69.00;37.05;;;;;;;5.22;62.19;99387.09;1677542;84;25751;-63
2021/12/12 10:39:26;;;;;;;41.23;23.40;;;;;;;5.24;63.88;99376.80;1677455;85;25766;-62
2021/12/12 10:42:01;;;;;;;53.58;29.23;;;;;;;5.45;61.42;99369.61;1677401;84;25506;-62
2021/12/12 10:44:46;;;;;;;55.28;31.05;;;;;;;5.85;61.33;99366.02;1676688;85;28625;-62
2021/12/12 10:47:47;;;;;;;39.33;22.52;;;;;;;6.04;61.32;99358.77;1676991;85;25634;-61
2021/12/12 10:50:32;;;;;;;35.15;20.45;;;;;;;6.34;61.81;99358.61;1677292;84;25664;-61
2021/12/12 10:53:20;;;;;;;54.35;27.80;;;;;;;6.71;58.92;99361.41;1677419;84;27286;-62
2021/12/12 10:56:16;;;;;;;46.13;25.68;;;;;;;6.81;59.45;99356.49;1677382;84;25582;-62
2021/12/12 10:58:54;;;;;;;38.85;23.95;;;;;;;7.27;58.69;99359.23;1678025;84;27437;-61
2021/12/12 11:01:34;;;;;;;46.05;26.95;;;;;;;7.83;57.14;99351.74;1685667;85;25594;-61
2021/12/12 11:04:21;;;;;;;40.58;23.35;;;;;;;7.98;59.15;99352.23;1686752;84;25449;-62
2021/12/12 11:07:02;;;;;;;44.80;28.47;;;;;;;8.34;58.54;99346.59;1703130;83;25734;-62
2021/12/12 11:09:55;;;;;;;49.05;29.48;;;;;;;8.29;57.40;99343.88;1669319;84;33515;-61
2021/12/12 11:12:36;;;;;;;111.92;50.85;;;;;;;8.33;56.25;99344.97;1686019;84;27573;-62
2021/12/12 11:15:23;;;;;;;46.10;26.80;;;;;;;8.67;57.50;99336.59;1709710;83;25808;-61
2021/12/12 11:18:01;;;;;;;43.05;24.90;;;;;;;9.28;54.33;99344.56;1699289;84;25434;-62
2021/12/12 11:20:38;;;;;;;33.80;21.12;;;;;;;9.66;53.94;99340.63;1679727;85;26071;-62
2021/12/12 11:23:38;;;;;;;95.90;62.62;;;;;;;9.82;52.39;99345.11;1698932;84;25602;-62
2021/12/12 11:26:15;;;;;;;60.78;33.35;;;;;;;9.99;51.83;99348.16;1678309;85;27506;-62
2021/12/12 11:28:59;;;;;;;41.18;26.23;;;;;;;10.29;51.94;99352.19;1683178;85;25971;-61
2021/12/12 11:31:40;;;;;;;71.70;39.23;;;;;;;10.75;52.99;99347.17;1692620;84;25563;-61
2021/12/12 11:34:09;;;;;;;47.20;26.75;;;;;;;11.12;50.59;99346.05;1687066;85;26567;-62
2021/12/12 11:37:06;;;;;;;196.90;93.85;;;;;;;11.21;46.60;99346.16;1686034;85;25802;-62
2021/12/12 11:39:41;;;;;;;67.50;33.83;;;;;;;11.41;51.05;99336.76;1684099;85;27458;-62
2021/12/12 11:42:26;;;;;;;62.98;35.43;;;;;;;12.10;48.13;99331.60;1683798;85;25756;-62
2021/12/12 11:45:13;;;;;;;82.10;45.83;;;;;;;12.21;48.59;99338.52;1682164;85;25610;-63
2021/12/12 11:48:00;;;;;;;63.05;39.73;;;;;;;12.48;47.97;99327.75;1662785;85;25924;-62
2021/12/12 11:50:59;;;;;;;98.60;47.55;;;;;;;12.76;46.54;99329.86;1684243;85;25666;-62
2021/12/12 11:53:43;;;;;;;67.40;38.17;;;;;;;12.24;46.28;99340.66;1684246;85;27813;-62
2021/12/12 11:56:21;;;;;;;99.65;50.08;;;;;;;12.46;46.73;99340.43;1683966;85;25702;-62
2021/12/12 11:59:05;;;;;;;124.40;63.90;;;;;;;12.98;46.34;99332.92;1684556;85;25634;-63
2021/12/12 12:01:53;;;;;;;177.55;83.22;;;;;;;12.87;45.84;99337.86;1684151;85;25752;-63
2021/12/12 12:04:34;;;;;;;125.27;64.70;;;;;;;12.88;44.67;99335.34;1684622;85;25672;-61
2021/12/12 12:07:21;;;;;;;76.42;42.30;;;;;;;12.64;45.45;99342.77;1684015;85;27794;-62
2021/12/12 12:10:20;;;;;;;65.17;38.23;;;;;;;12.93;43.55;99341.53;1683488;85;27405;-61
2021/12/12 12:13:07;;;;;;;42.20;24.50;;;;;;;13.35;44.77;99341.05;1684178;85;25748;-64